createdAt,value
2023-06-11T00:02:14.203Z,7.70
2023-06-11T00:05:18.636Z,11.80
2023-06-11T00:08:21.419Z,9.68
2023-06-11T00:11:24.845Z,9.82
2023-06-11T00:14:28.211Z,9.55
2023-06-11T00:17:34.022Z,9.45
2023-06-11T00:20:41.960Z,9.83
2023-06-11T00:23:47.769Z,9.35
2023-06-11T00:26:50.619Z,10.07
2023-06-11T00:29:55.397Z,7.80
2023-06-11T00:32:58.312Z,8.48
2023-06-11T00:36:02.106Z,9.93
2023-06-11T00:39:06.600Z,8.23
2023-06-11T00:42:11.492Z,8.55
2023-06-11T00:45:14.474Z,8.68
2023-06-11T00:48:23.320Z,9.40
2023-06-11T00:51:26.977Z,7.80
2023-06-11T00:54:30.426Z,10.20
2023-06-11T00:57:33.644Z,11.57
2023-06-11T01:00:36.938Z,9.88
2023-06-11T01:03:42.643Z,10.85
2023-06-11T01:06:51.114Z,11.20
2023-06-11T01:09:54.523Z,9.57
2023-06-11T01:12:57.805Z,11.60
2023-06-11T01:16:21.732Z,9.95
2023-06-11T01:19:55.931Z,10.68
2023-06-11T01:23:14.359Z,9.23
2023-06-11T01:26:38.817Z,9.43
2023-06-11T01:29:46.896Z,10.05
2023-06-11T01:32:57.281Z,9.32
2023-06-11T01:36:06.902Z,9.77
2023-06-11T01:39:12.960Z,11.63
2023-06-11T01:42:16.629Z,10.82
2023-06-11T01:45:20.632Z,13.02
2023-06-11T01:48:23.350Z,12.52
2023-06-11T01:51:26.721Z,12.43
2023-06-11T01:54:29.579Z,11.87
2023-06-11T01:57:36.167Z,12.48
2023-06-11T02:00:39.325Z,9.52
2023-06-11T02:03:42.640Z,10.45
2023-06-11T02:06:45.479Z,12.05
2023-06-11T02:09:48.652Z,11.00
2023-06-11T02:12:51.902Z,12.13
2023-06-11T02:15:55.032Z,10.70
2023-06-11T02:18:57.816Z,10.10
2023-06-11T02:22:00.900Z,13.55
2023-06-11T02:25:03.796Z,11.10
2023-06-11T02:28:07.497Z,11.77
2023-06-11T02:31:10.744Z,12.37
2023-06-11T02:34:13.938Z,11.65
2023-06-11T02:37:16.665Z,12.48
2023-06-11T02:40:19.974Z,10.27
2023-06-11T02:43:22.754Z,10.73
2023-06-11T02:46:25.952Z,16.17
2023-06-11T02:49:28.893Z,10.80
2023-06-11T02:52:32.012Z,12.85
2023-06-11T02:55:34.767Z,10.03
2023-06-11T02:58:38.035Z,11.93
2023-06-11T03:01:41.094Z,12.13
2023-06-11T03:04:45.054Z,11.55
2023-06-11T03:07:47.999Z,11.35
2023-06-11T03:10:51.320Z,13.67
2023-06-11T03:13:54.565Z,13.38
2023-06-11T03:16:57.702Z,11.65
2023-06-11T03:20:00.527Z,13.45
2023-06-11T03:23:03.868Z,13.20
2023-06-11T03:26:06.719Z,15.50
2023-06-11T03:29:10.065Z,12.68
2023-06-11T03:32:14.978Z,15.75
2023-06-11T03:35:18.869Z,11.27
2023-06-11T03:38:22.510Z,14.07
2023-06-11T03:41:27.341Z,15.63
2023-06-11T03:44:30.517Z,15.55
2023-06-11T03:47:37.253Z,10.88
2023-06-11T03:50:40.294Z,11.32
2023-06-11T03:53:44.304Z,12.60
2023-06-11T03:56:47.546Z,12.33
2023-06-11T03:59:50.630Z,11.18
2023-06-11T04:02:58.903Z,11.30
2023-06-11T04:06:03.516Z,9.27
2023-06-11T04:09:07.410Z,12.95
2023-06-11T04:12:11.513Z,9.80
2023-06-11T04:15:14.816Z,12.23
2023-06-11T04:18:18.117Z,16.27
2023-06-11T04:21:21.192Z,11.77
2023-06-11T04:24:27.024Z,9.98
2023-06-11T04:27:35.137Z,10.97
2023-06-11T04:30:40.788Z,10.85
2023-06-11T04:33:44.135Z,10.57
2023-06-11T04:36:48.890Z,11.73
2023-06-11T04:39:52.353Z,13.68
2023-06-11T04:42:55.842Z,11.03
2023-06-11T04:45:58.992Z,13.75
2023-06-11T04:49:05.348Z,10.52
2023-06-11T04:52:09.725Z,11.73
2023-06-11T04:55:13.804Z,12.32
2023-06-11T04:58:17.162Z,12.47
2023-06-11T05:01:22.102Z,12.25
2023-06-11T05:04:25.547Z,10.52
2023-06-11T05:07:30.487Z,9.95
2023-06-11T05:10:33.576Z,11.20
2023-06-11T05:13:38.540Z,9.30
2023-06-11T05:16:42.118Z,11.10
2023-06-11T05:19:45.740Z,11.88
2023-06-11T05:22:48.996Z,12.25
2023-06-11T05:25:52.011Z,10.45
2023-06-11T05:28:55.206Z,9.50
2023-06-11T05:31:59.691Z,12.18
2023-06-11T05:35:04.345Z,11.32
2023-06-11T05:38:07.971Z,8.77
2023-06-11T05:41:11.762Z,8.38
2023-06-11T05:44:15.460Z,7.50
2023-06-11T05:47:19.024Z,9.35
2023-06-11T05:50:23.491Z,8.25
2023-06-11T05:53:26.314Z,7.18
2023-06-11T05:56:29.337Z,9.43
2023-06-11T05:59:32.161Z,6.20
2023-06-11T06:02:35.306Z,7.85
2023-06-11T06:05:38.982Z,6.95
2023-06-11T06:08:43.936Z,6.85
2023-06-11T06:11:48.796Z,6.40
2023-06-11T06:14:51.823Z,6.50
2023-06-11T06:17:55.229Z,8.93
2023-06-11T06:20:59.015Z,9.82
2023-06-11T06:24:02.579Z,10.07
2023-06-11T06:27:06.283Z,6.97
2023-06-11T06:30:10.889Z,6.90
2023-06-11T06:33:14.256Z,7.25
2023-06-11T06:36:22.730Z,7.68
2023-06-11T06:39:26.891Z,6.40
2023-06-11T06:42:30.635Z,5.55
2023-06-11T06:45:34.973Z,5.60
2023-06-11T06:48:38.788Z,7.22
2023-06-11T06:51:41.574Z,6.25
2023-06-11T06:54:44.920Z,7.30
2023-06-11T06:57:47.824Z,6.93
2023-06-11T07:00:51.044Z,5.73
2023-06-11T07:03:55.124Z,5.78
2023-06-11T07:06:58.862Z,7.12
2023-06-11T07:10:01.477Z,5.93
2023-06-11T07:13:06.708Z,7.15
2023-06-11T07:16:09.767Z,7.10
2023-06-11T07:19:14.067Z,7.82
2023-06-11T07:22:17.103Z,8.68
2023-06-11T07:25:20.583Z,7.45
2023-06-11T07:28:23.766Z,8.93
2023-06-11T07:31:31.754Z,8.47
2023-06-11T07:34:34.797Z,11.30
2023-06-11T07:37:37.999Z,8.82
2023-06-11T07:40:41.778Z,7.60
2023-06-11T07:43:45.752Z,7.43
2023-06-11T07:46:48.922Z,7.77
2023-06-11T07:49:52.474Z,8.70
2023-06-11T07:52:55.345Z,16.02
2023-06-11T07:56:01.348Z,7.37
2023-06-11T07:59:04.460Z,6.78
2023-06-11T08:02:08.854Z,9.87
2023-06-11T08:05:12.980Z,9.18
2023-06-11T08:08:15.959Z,11.77
2023-06-11T08:11:19.174Z,8.02
2023-06-11T08:14:22.311Z,10.77
2023-06-11T08:17:25.860Z,10.93
2023-06-11T08:20:31.481Z,8.30
2023-06-11T08:23:39.313Z,9.95
2023-06-11T08:26:42.258Z,11.93
2023-06-11T08:29:45.195Z,8.88
2023-06-11T08:32:48.123Z,9.17
2023-06-11T08:35:51.445Z,8.18
2023-06-11T08:38:54.117Z,7.35
2023-06-11T08:41:57.269Z,9.93
2023-06-11T08:45:00.157Z,6.68
2023-06-11T08:48:04.802Z,9.33
2023-06-11T08:51:13.676Z,8.88
2023-06-11T08:54:18.117Z,8.82
2023-06-11T08:57:21.698Z,7.35
2023-06-11T09:00:25.165Z,7.18
2023-06-11T09:03:28.110Z,8.17
2023-06-11T09:06:31.387Z,9.82
2023-06-11T09:09:34.061Z,7.60
2023-06-11T09:12:37.755Z,8.15
2023-06-11T09:15:48.731Z,7.18
2023-06-11T09:18:51.991Z,7.43
2023-06-11T09:21:57.601Z,7.37
2023-06-11T09:25:07.247Z,6.97
2023-06-11T09:28:11.686Z,6.28
2023-06-11T09:31:20.168Z,6.82
2023-06-11T09:34:24.305Z,7.10
2023-06-11T09:37:27.613Z,6.82
2023-06-11T09:40:35.648Z,6.15
2023-06-11T09:43:40.533Z,11.43
2023-06-11T09:46:43.424Z,5.87
2023-06-11T09:49:46.601Z,7.00
2023-06-11T09:52:51.608Z,6.50
2023-06-11T09:56:09.291Z,5.78
2023-06-11T09:59:16.537Z,7.15
2023-06-11T10:02:19.707Z,6.87
2023-06-11T10:05:23.222Z,7.27
2023-06-11T10:08:31.818Z,5.93
2023-06-11T10:11:40.263Z,8.30
2023-06-11T10:14:51.015Z,7.18
2023-06-11T10:17:55.630Z,5.85
2023-06-11T10:21:03.766Z,6.07
2023-06-11T10:24:07.854Z,6.43
2023-06-11T10:27:15.688Z,7.60
2023-06-11T10:30:25.799Z,5.72
2023-06-11T10:33:43.398Z,6.45
2023-06-11T10:36:46.626Z,5.03
2023-06-11T10:39:52.961Z,7.68
2023-06-11T10:42:56.282Z,5.87
2023-06-11T10:46:05.864Z,5.45
2023-06-11T10:49:15.872Z,6.03
2023-06-11T10:52:18.988Z,7.00
2023-06-11T10:55:23.514Z,5.90
2023-06-11T10:58:28.446Z,5.95
2023-06-11T11:01:32.836Z,7.45
2023-06-11T11:04:35.701Z,6.10
2023-06-11T11:07:38.875Z,5.37
2023-06-11T11:10:41.644Z,4.62
2023-06-11T11:13:47.159Z,5.97
2023-06-11T11:16:50.713Z,6.35
2023-06-11T11:19:54.944Z,6.43
2023-06-11T11:22:58.590Z,5.10
2023-06-11T11:26:01.925Z,5.57
2023-06-11T11:29:04.791Z,4.45
2023-06-11T11:32:10.437Z,4.80
2023-06-11T11:35:18.047Z,5.93
2023-06-11T11:38:22.625Z,7.27
2023-06-11T11:41:25.455Z,5.90
2023-06-11T11:44:39.095Z,6.25
2023-06-11T11:47:43.845Z,5.68
2023-06-11T11:50:50.741Z,5.35
2023-06-11T11:53:53.610Z,5.47
2023-06-11T11:57:04.054Z,7.55
2023-06-11T12:00:08.652Z,6.28
2023-06-11T12:03:12.682Z,6.62
2023-06-11T12:06:25.095Z,5.68
2023-06-11T12:09:29.933Z,5.53
2023-06-11T12:12:32.661Z,6.18
2023-06-11T12:15:35.915Z,4.20
2023-06-11T12:18:38.943Z,8.77
2023-06-11T12:21:42.105Z,6.30
2023-06-11T12:24:44.990Z,5.00
2023-06-11T12:27:48.200Z,5.37
2023-06-11T12:30:51.029Z,4.87
2023-06-11T12:33:54.029Z,4.45
2023-06-11T12:36:57.437Z,9.15
2023-06-11T12:40:00.834Z,6.13
2023-06-11T12:43:03.936Z,3.95
2023-06-11T12:46:08.700Z,3.97
2023-06-11T12:49:11.648Z,5.45
2023-06-11T12:52:14.736Z,3.85
2023-06-11T12:55:17.686Z,6.90
2023-06-11T12:58:21.222Z,7.22
2023-06-11T13:01:24.550Z,3.22
2023-06-11T13:04:27.633Z,4.03
2023-06-11T13:07:30.658Z,3.30
2023-06-11T13:10:33.711Z,3.17
2023-06-11T13:13:36.570Z,5.47
2023-06-11T13:16:42.865Z,3.83
2023-06-11T13:19:46.027Z,5.25
2023-06-11T13:22:49.136Z,5.18
2023-06-11T13:25:51.937Z,5.07
2023-06-11T13:28:55.015Z,5.28
2023-06-11T13:31:58.180Z,4.50
2023-06-11T13:35:01.256Z,3.62
2023-06-11T13:38:04.302Z,3.20
2023-06-11T13:41:07.994Z,3.50
2023-06-11T13:44:10.974Z,6.93
2023-06-11T13:47:14.288Z,5.47
2023-06-11T13:50:17.363Z,8.38
2023-06-11T13:53:21.058Z,3.47
2023-06-11T13:56:24.061Z,3.73
2023-06-11T13:59:27.209Z,7.05
2023-06-11T14:02:30.880Z,3.10
2023-06-11T14:05:37.490Z,3.58
2023-06-11T14:08:40.291Z,3.85
2023-06-11T14:11:43.567Z,3.73
2023-06-11T14:14:46.395Z,3.58
2023-06-11T14:17:49.580Z,3.92
2023-06-11T14:20:52.424Z,4.85
2023-06-11T14:23:55.596Z,3.62
2023-06-11T14:26:58.477Z,4.57
2023-06-11T14:30:02.098Z,6.93
2023-06-11T14:33:05.157Z,3.90
2023-06-11T14:36:08.659Z,4.57
2023-06-11T14:39:11.531Z,3.58
2023-06-11T14:42:14.604Z,3.70
2023-06-11T14:45:17.825Z,3.03
2023-06-11T14:48:21.208Z,7.78
2023-06-11T14:51:24.296Z,3.30
2023-06-11T14:54:27.466Z,4.00
2023-06-11T14:57:30.317Z,6.40
2023-06-11T15:00:33.811Z,3.50
2023-06-11T15:03:36.690Z,4.05
2023-06-11T15:06:40.997Z,7.00
2023-06-11T15:09:46.059Z,4.85
2023-06-11T15:12:49.172Z,5.40
2023-06-11T15:15:52.392Z,4.25
2023-06-11T15:18:56.381Z,5.05
2023-06-11T15:22:03.060Z,4.37
2023-06-11T15:25:07.073Z,5.15
2023-06-11T15:28:11.072Z,3.30
2023-06-11T15:31:15.826Z,3.37
2023-06-11T15:34:21.403Z,3.95
2023-06-11T15:37:25.752Z,4.60
2023-06-11T15:40:28.940Z,4.45
2023-06-11T15:43:32.069Z,4.07
2023-06-11T15:46:34.818Z,5.35
2023-06-11T15:49:38.115Z,5.40
2023-06-11T15:52:40.931Z,4.35
2023-06-11T15:55:44.084Z,3.45
2023-06-11T15:58:46.845Z,4.27
2023-06-11T16:01:49.874Z,4.62
2023-06-11T16:04:52.980Z,3.70
2023-06-11T16:07:55.800Z,6.22
2023-06-11T16:10:58.848Z,4.97
2023-06-11T16:14:02.430Z,5.30
2023-06-11T16:17:05.600Z,6.22
2023-06-11T16:20:09.876Z,4.18
2023-06-11T16:23:13.266Z,3.60
2023-06-11T16:26:16.127Z,4.82
2023-06-11T16:29:19.286Z,4.70
2023-06-11T16:32:22.132Z,3.83
2023-06-11T16:35:25.291Z,3.65
2023-06-11T16:38:28.132Z,5.53
2023-06-11T16:41:34.172Z,5.32
2023-06-11T16:44:37.076Z,3.70
2023-06-11T16:47:40.248Z,6.78
2023-06-11T16:50:42.995Z,4.35
2023-06-11T16:53:46.276Z,3.85
2023-06-11T16:56:49.041Z,5.75
2023-06-11T16:59:52.259Z,3.70
2023-06-11T17:02:56.231Z,3.72
2023-06-11T17:05:59.337Z,5.03
2023-06-11T17:09:02.098Z,3.60
2023-06-11T17:12:05.551Z,5.85
2023-06-11T17:15:11.182Z,5.00
2023-06-11T17:18:14.342Z,5.28
2023-06-11T17:21:17.309Z,8.48
2023-06-11T17:24:20.363Z,5.30
2023-06-11T17:27:23.331Z,4.28
2023-06-11T17:30:26.570Z,4.03
2023-06-11T17:33:29.660Z,3.47
2023-06-11T17:36:32.681Z,4.00
2023-06-11T17:39:35.606Z,5.10
2023-06-11T17:42:44.982Z,4.47
2023-06-11T17:45:49.663Z,4.50
2023-06-11T17:48:54.198Z,3.87
2023-06-11T17:51:56.920Z,4.28
2023-06-11T17:55:02.225Z,3.65
2023-06-11T17:58:04.967Z,4.32
2023-06-11T18:01:09.328Z,3.93
2023-06-11T18:04:13.278Z,6.10
2023-06-11T18:07:16.440Z,4.28
2023-06-11T18:10:19.968Z,8.10
2023-06-11T18:13:22.778Z,4.45
2023-06-11T18:16:26.372Z,7.10
2023-06-11T18:19:29.324Z,4.35
2023-06-11T18:22:32.432Z,5.40
2023-06-11T18:25:35.375Z,5.25
2023-06-11T18:28:38.523Z,4.07
2023-06-11T18:31:41.805Z,4.27
2023-06-11T18:34:47.398Z,4.37
2023-06-11T18:37:50.539Z,4.30
2023-06-11T18:40:54.371Z,4.22
2023-06-11T18:43:57.094Z,3.87
2023-06-11T18:47:02.203Z,4.33
2023-06-11T18:50:08.153Z,4.37
2023-06-11T18:53:11.875Z,5.37
2023-06-11T18:56:14.996Z,5.47
2023-06-11T18:59:18.940Z,4.70
2023-06-11T19:02:21.922Z,4.20
2023-06-11T19:05:25.185Z,5.85
2023-06-11T19:08:31.103Z,4.05
2023-06-11T19:11:34.369Z,4.25
2023-06-11T19:14:37.659Z,4.10
2023-06-11T19:17:41.342Z,6.60
2023-06-11T19:20:44.199Z,4.55
2023-06-11T19:23:47.459Z,4.30
2023-06-11T19:26:50.255Z,4.85
2023-06-11T19:29:53.307Z,5.07
2023-06-11T19:32:57.757Z,6.60
2023-06-11T19:36:02.452Z,4.50
2023-06-11T19:39:06.210Z,8.25
2023-06-11T19:42:09.471Z,5.82
2023-06-11T19:45:12.485Z,7.90
2023-06-11T19:48:20.561Z,3.70
2023-06-11T19:51:27.243Z,4.47
2023-06-11T19:54:45.919Z,4.62
2023-06-11T19:57:53.115Z,4.62
2023-06-11T20:00:56.413Z,4.70
2023-06-11T20:03:59.537Z,4.60
2023-06-11T20:07:02.402Z,5.35
2023-06-11T20:10:06.319Z,4.43
2023-06-11T20:13:09.092Z,4.37
2023-06-11T20:16:12.599Z,4.90
2023-06-11T20:19:15.833Z,5.23
2023-06-11T20:22:19.010Z,5.03
2023-06-11T20:25:22.118Z,4.57
2023-06-11T20:28:25.205Z,9.52
2023-06-11T20:31:27.917Z,5.93
2023-06-11T20:34:31.019Z,5.00
2023-06-11T20:37:33.793Z,4.97
2023-06-11T20:40:37.325Z,7.20
2023-06-11T20:43:40.036Z,5.55
2023-06-11T20:46:43.271Z,6.37
2023-06-11T20:49:46.176Z,5.03
2023-06-11T20:52:49.401Z,5.15
2023-06-11T20:55:52.138Z,4.20
2023-06-11T20:58:55.195Z,6.97
2023-06-11T21:01:58.477Z,4.53
2023-06-11T21:05:01.764Z,4.53
2023-06-11T21:08:04.772Z,4.87
2023-06-11T21:11:07.803Z,5.55
2023-06-11T21:14:14.727Z,5.82
2023-06-11T21:17:18.455Z,4.87
2023-06-11T21:20:21.215Z,4.27
2023-06-11T21:23:24.870Z,4.60
2023-06-11T21:26:27.488Z,4.40
2023-06-11T21:29:30.680Z,4.85
2023-06-11T21:32:33.525Z,6.30
2023-06-11T21:35:36.673Z,5.60
2023-06-11T21:38:39.354Z,4.57
2023-06-11T21:41:42.418Z,4.82
2023-06-11T21:44:45.069Z,6.03
2023-06-11T21:47:48.502Z,6.17
2023-06-11T21:50:51.362Z,5.37
2023-06-11T21:53:54.465Z,5.30
2023-06-11T21:56:57.739Z,4.80
2023-06-11T22:00:13.505Z,6.47
2023-06-11T22:03:18.616Z,5.77
2023-06-11T22:06:21.761Z,6.27
2023-06-11T22:09:27.630Z,4.93
2023-06-11T22:12:41.126Z,5.05
2023-06-11T22:15:45.343Z,4.93
2023-06-11T22:18:49.985Z,5.37
2023-06-11T22:21:53.890Z,6.70
2023-06-11T22:24:59.065Z,4.40
2023-06-11T22:28:02.329Z,5.10
2023-06-11T22:31:05.513Z,5.80
2023-06-11T22:34:08.652Z,4.60
2023-06-11T22:37:11.398Z,4.97
2023-06-11T22:40:15.054Z,6.95
2023-06-11T22:43:18.117Z,4.75
2023-06-11T22:46:21.442Z,5.65
2023-06-11T22:49:25.066Z,10.10
2023-06-11T22:52:30.914Z,5.17
2023-06-11T22:55:33.795Z,5.25
2023-06-11T22:58:37.046Z,4.75
2023-06-11T23:01:40.403Z,5.53
2023-06-11T23:04:43.516Z,8.33
2023-06-11T23:07:47.800Z,4.63
2023-06-11T23:10:50.927Z,5.37
2023-06-11T23:13:53.609Z,4.45
2023-06-11T23:16:59.739Z,4.93
2023-06-11T23:20:03.958Z,8.03
2023-06-11T23:23:07.137Z,6.20
2023-06-11T23:26:10.854Z,4.50
2023-06-11T23:29:16.382Z,3.85
2023-06-11T23:32:20.062Z,4.30
2023-06-11T23:35:23.284Z,5.50
2023-06-11T23:38:32.402Z,4.43
2023-06-11T23:41:35.788Z,5.53
2023-06-11T23:44:39.197Z,4.60
2023-06-11T23:47:45.479Z,4.87
2023-06-11T23:50:48.382Z,6.97
2023-06-11T23:53:52.926Z,4.90
2023-06-11T23:56:55.703Z,7.87
2023-06-11T23:59:58.687Z,5.22
